Portada
METAR-TAF:

METAR-TAF

Aeroports :

Grayling Army Airfield

Grayling, Michigan, Estats Units d'Amèrica

latitud: 44-40-49N, longitud: 084-43-44W, altitud: 353 m

Observació

L'informe es va fer fa 51 minuts, a les 06:03 UTC
Vent 7 kt del Oest
Temperatura 4°C
Humitat 100%
Pressió 1004 hPa
Visibilitat: 11.3 km
Cel cobert a una alçada de 700 ft

METAR: KGOV 300603Z AUTO 28007KT 7SM OVC007 04/04 A2966 RMK AO2 SLP057 $

Hora: 02:54 (06:54 UTC)


TAF: manca

Observacions i pronòstics meteorològics de més de 4000 aeroports (METAR i TAF).

Les estacions disponibles són els punts grocs i vermells al mapa.

Posi el ratolí al punt desitjat per veure el nom de l'estació.

Feu clic per veure les observacions i els pronòstics meteorològics.

Per canviar el mapa: feu clic els botons verds amb una creu de color negre per apropar; al botó verd amb un guió per allunyar la imatge; o en les fletxes verdes per a mapes adjacents.


METAR-TAF: